Terminal Aerodrome Forecast
Issued by NWS Rapid City, SD

Home | Current Version | Previous Version | Graphics & Text | Print | Product List | Glossary On
Versions: 1 2 3 4 5 6 7 8 9 10 11 12 13
772
FTUS43 KUNR 181120
TAFRAP
TAF
KRAP 181120Z 1812/1912 34020G30KT P6SM BKN250
     FM181800 02014KT P6SM FEW250
     FM190100 16008KT P6SM FEW250=

USA.gov is the U.S. government's official web portal to all federal, state and local government web resources and services.